地図

経路データ

SID SEASON NUMBER BASIN SUBBASIN NAME ISO_TIME NATURE LAT LON WMO_WIND WMO_PRES WMO_AGENCY TRACK_TYPE DIST2LAND LANDFALL IFLAG USA_AGENCY USA_ATCF_ID USA_LAT USA_LON USA_RECORD USA_STATUS USA_WIND USA_PRES USA_SSHS USA_R34_NE USA_R34_SE USA_R34_SW USA_R34_NW USA_R50_NE USA_R50_SE USA_R50_SW USA_R50_NW USA_R64_NE USA_R64_SE USA_R64_SW USA_R64_NW USA_POCI USA_ROCI USA_RMW USA_EYE TOKYO_LAT TOKYO_LON TOKYO_GRADE TOKYO_WIND TOKYO_PRES TOKYO_R50_DIR TOKYO_R50_LONG TOKYO_R50_SHORT TOKYO_R30_DIR TOKYO_R30_LONG TOKYO_R30_SHORT TOKYO_LAND CMA_LAT CMA_LON CMA_CAT CMA_WIND CMA_PRES HKO_LAT HKO_LON HKO_CAT HKO_WIND HKO_PRES NEWDELHI_LAT NEWDELHI_LON NEWDELHI_GRADE NEWDELHI_WIND NEWDELHI_PRES NEWDELHI_CI NEWDELHI_DP NEWDELHI_POCI REUNION_LAT REUNION_LON REUNION_TYPE REUNION_WIND REUNION_PRES REUNION_TNUM REUNION_CI REUNION_RMW REUNION_R34_NE REUNION_R34_SE REUNION_R34_SW REUNION_R34_NW REUNION_R50_NE REUNION_R50_SE REUNION_R50_SW REUNION_R50_NW REUNION_R64_NE REUNION_R64_SE REUNION_R64_SW REUNION_R64_NW BOM_LAT BOM_LON BOM_TYPE BOM_WIND BOM_PRES BOM_TNUM BOM_CI BOM_RMW BOM_R34_NE BOM_R34_SE BOM_R34_SW BOM_R34_NW BOM_R50_NE BOM_R50_SE BOM_R50_SW BOM_R50_NW BOM_R64_NE BOM_R64_SE BOM_R64_SW BOM_R64_NW BOM_ROCI BOM_POCI BOM_EYE BOM_POS_METHOD BOM_PRES_METHOD NADI_LAT NADI_LON NADI_CAT NADI_WIND NADI_PRES WELLINGTON_LAT WELLINGTON_LON WELLINGTON_WIND WELLINGTON_PRES DS824_LAT DS824_LON DS824_STAGE DS824_WIND DS824_PRES TD9636_LAT TD9636_LON TD9636_STAGE TD9636_WIND TD9636_PRES TD9635_LAT TD9635_LON TD9635_WIND TD9635_PRES TD9635_ROCI NEUMANN_LAT NEUMANN_LON NEUMANN_CLASS NEUMANN_WIND NEUMANN_PRES MLC_LAT MLC_LON MLC_CLASS MLC_WIND MLC_PRES USA_GUST BOM_GUST BOM_GUST_PER REUNION_GUST REUNION_GUST_PER USA_SEAHGT USA_SEARAD_NE USA_SEARAD_SE USA_SEARAD_SW USA_SEARAD_NW STORM_SPEED STORM_DIR
1945346N09088 1945 87 NI BB NOT_NAMED 1945-12-11 18:00:00 TS 8.70000 87.7000 main 661 620 O________O____ jtwc_io IO131945 8.70000 87.7000 -1 8.70000 87.7000 TC 9 288
1945346N09088 1945 87 NI BB NOT_NAMED 1945-12-11 21:00:00 TS 8.84259 87.2526 main 620 572 P________P____ IO131945 8.84259 87.2526 -1 8.84259 87.2526 TC 9 289
1945346N09088 1945 87 NI BB NOT_NAMED 1945-12-12 00:00:00 TS 9.00000 86.8000 main 572 533 O________O____ jtwc_io IO131945 9.00000 86.8000 -1 9.00000 86.8000 TC 35 10 291
1945346N09088 1945 87 NI BB NOT_NAMED 1945-12-12 03:00:00 TS 9.18664 86.3377 main 526 494 P________PO___ IO131945 9.18497 86.3425 -1 9.18497 86.3425 TC 35 9.20000 86.3000 2 10 294
1945346N09088 1945 87 NI BB NOT_NAMED 1945-12-12 06:00:00 TS 9.40137 85.8901 main 494 464 O________OP___ jtwc_io IO131945 9.40000 85.9000 -1 9.40000 85.9000 TC 35 9.40684 85.8503 2 10 297
1945346N09088 1945 87 NI BB NOT_NAMED 1945-12-12 09:00:00 TS 9.62833 85.4673 main 464 434 P________PP___ IO131945 9.62745 85.4849 -1 9.62745 85.4849 TC 50 9.63068 85.4202 2 9 302
1945346N09088 1945 87 NI BB NOT_NAMED 1945-12-12 12:00:00 TS 9.89638 85.0767 main 439 414 O________OP___ jtwc_io IO131945 9.90000 85.1000 -1 9.90000 85.1000 TC 65 9.88915 85.0301 2 10 308
1945346N09088 1945 87 NI BB NOT_NAMED 1945-12-12 15:00:00 TS 10.2183 84.7084 main 414 404 P________PO___ IO131945 10.2275 84.7125 -1 10.2275 84.7125 TC 65 10.2000 84.7000 4 10 317
1945346N09088 1945 87 NI BB NOT_NAMED 1945-12-12 18:00:00 TS 10.5910 84.4152 main 410 407 O________OP___ jtwc_io IO131945 10.6000 84.4000 -1 10.6000 84.4000 TC 65 10.5729 84.4457 4 9 328
1945346N09088 1945 87 NI BB NOT_NAMED 1945-12-12 21:00:00 TS 10.9949 84.2200 main 417 417 P________PP___ IO131945 10.9999 84.1975 -1 10.9999 84.1975 TC 65 10.9847 84.2651 4 9 340
1945346N09088 1945 87 NI BB NOT_NAMED 1945-12-13 00:00:00 TS 11.4014 84.1173 main 431 431 O________OP___ jtwc_io IO131945 11.4000 84.1000 -1 11.4000 84.1000 TC 65 11.4042 84.1520 4 8 350
1945346N09088 1945 87 NI BB NOT_NAMED 1945-12-13 03:00:00 TS 11.7767 84.0800 main 431 426 P________PO___ IO131945 11.7650 84.0699 -1 11.7650 84.0699 TC 65 11.8000 84.1000 4 7 0
1945346N09088 1945 87 NI BB NOT_NAMED 1945-12-13 06:00:00 TS 12.1096 84.0934 main 426 423 O________OP___ jtwc_io IO131945 12.1000 84.1000 -1 12.1000 84.1000 TC 65 12.1287 84.0801 4 6 3
1945346N09088 1945 87 NI BB NOT_NAMED 1945-12-13 09:00:00 TS 12.4150 84.1291 main 423 421 P________PP___ IO131945 12.4075 84.1350 -1 12.4075 84.1350 TC 65 12.4299 84.1173 4 6 10
1945346N09088 1945 87 NI BB NOT_NAMED 1945-12-13 12:00:00 TS 12.7054 84.1986 main 428 424 O________OP___ jtwc_io IO131945 12.7000 84.2000 -1 12.7000 84.2000 TC 65 12.7162 84.1958 4 6 15
1945346N09088 1945 87 NI BB NOT_NAMED 1945-12-13 15:00:00 TS 13.0000 84.2900 main 434 432 P________PO___ IO131945 13.0000 84.2850 -1 13.0000 84.2850 TC 50 13.0000 84.3000 4 6 19
1945346N09088 1945 87 NI BB NOT_NAMED 1945-12-13 18:00:00 TS 13.2965 84.4065 main 432 410 O________OP___ jtwc_io IO131945 13.3000 84.4000 -1 13.3000 84.4000 TC 35 13.2913 84.4162 4 6 22
1945346N09088 1945 87 NI BB NOT_NAMED 1945-12-13 21:00:00 TS 13.5958 84.5413 main 410 397 P________PP___ IO131945 13.6000 84.5424 -1 13.6000 84.5424 TC 30 13.5901 84.5398 4 7 24
1945346N09088 1945 87 NI BB NOT_NAMED 1945-12-14 00:00:00 TS 13.8969 84.6843 main 397 379 O________OP___ jtwc_io IO131945 13.9000 84.7000 -1 13.9000 84.7000 TC 25 13.8938 84.6685 4 7 22
1945346N09088 1945 87 NI BB NOT_NAMED 1945-12-14 03:00:00 NR 14.2000 84.8000 main 379 __________O___ IO131945 -1 TC 14.2000 84.8000 1 7 21

IBTrACS Databaseについて

本データベースは、米国NOAAが公開する1842年以降の世界の熱帯低気圧のベストトラックデータアーカイブInternational Best Track Archive for Climate Stewardship (IBTrACS)を、ウェブで閲覧しやすい形式に変換したものです。

最終更新日:2021-11-26